QFA498 YMML-YSSY
Flight info
| Callsign | QFA498 |
|---|---|
| Flight time | 1h 7m |
| Altitude | 37000 |
| Route | ML H129 DOSEL Y59 RIVET |
| Aircraft | A21N/M-SDE2E3FGHIRWXY/LB1 |
Departure
| Time | 2026-05-04 09:23 |
|---|---|
| Airport | Melbourne Airport (YMML) |
Arrival
| Time | 2026-05-04 10:30 |
|---|---|
| Airport | Sydney Kingsford Smith International Airport (YSSY) |
| Time | Latitude | Longitude | Altitude | Speed | Heading |
|---|---|---|---|---|---|
| 2026-05-04 08:47 | -37.66907 | 144.84514 | 393 ft | 0 kts | 11° |
| 2026-05-04 09:07 | -37.66948 | 144.84503 | 393 ft | 2 kts | 11° |
| 2026-05-04 09:08 | -37.66963 | 144.84502 | 393 ft | 2 kts | 351° |
| 2026-05-04 09:08 | -37.66977 | 144.84506 | 393 ft | 2 kts | 337° |
| 2026-05-04 09:08 | -37.66991 | 144.84515 | 393 ft | 2 kts | 321° |
| 2026-05-04 09:08 | -37.67001 | 144.84529 | 394 ft | 2 kts | 305° |
| 2026-05-04 09:09 | -37.67009 | 144.84546 | 394 ft | 2 kts | 289° |
| 2026-05-04 09:09 | -37.67012 | 144.84564 | 395 ft | 2 kts | 274° |
| 2026-05-04 09:09 | -37.67012 | 144.84576 | 395 ft | 0 kts | 263° |
| 2026-05-04 09:09 | -37.67011 | 144.84586 | 396 ft | 0 kts | 262° |
| 2026-05-04 09:14 | -37.67048 | 144.84399 | 388 ft | 3 kts | 259° |
| 2026-05-04 09:14 | -37.67052 | 144.84372 | 387 ft | 3 kts | 261° |
| 2026-05-04 09:14 | -37.67058 | 144.84326 | 385 ft | 6 kts | 261° |
| 2026-05-04 09:14 | -37.67065 | 144.84276 | 385 ft | 3 kts | 254° |
| 2026-05-04 09:15 | -37.67087 | 144.84251 | 384 ft | 5 kts | 192° |
| 2026-05-04 09:15 | -37.67136 | 144.84256 | 383 ft | 8 kts | 171° |
| 2026-05-04 09:15 | -37.67204 | 144.84270 | 382 ft | 11 kts | 171° |
| 2026-05-04 09:15 | -37.67286 | 144.84283 | 380 ft | 11 kts | 171° |
| 2026-05-04 09:17 | -37.67569 | 144.84337 | 374 ft | 0 kts | 171° |
| 2026-05-04 09:18 | -37.67618 | 144.84348 | 372 ft | 12 kts | 171° |
| 2026-05-04 09:18 | -37.67715 | 144.84366 | 369 ft | 15 kts | 171° |
| 2026-05-04 09:18 | -37.67829 | 144.84387 | 366 ft | 17 kts | 171° |
| 2026-05-04 09:18 | -37.67957 | 144.84410 | 361 ft | 20 kts | 171° |
| 2026-05-04 09:19 | -37.68103 | 144.84438 | 356 ft | 22 kts | 172° |
| 2026-05-04 09:19 | -37.68261 | 144.84467 | 350 ft | 18 kts | 172° |
| 2026-05-04 09:19 | -37.68334 | 144.84471 | 347 ft | 9 kts | 191° |
| 2026-05-04 09:19 | -37.68397 | 144.84428 | 345 ft | 11 kts | 213° |
| 2026-05-04 09:20 | -37.68472 | 144.84367 | 342 ft | 13 kts | 212° |
| 2026-05-04 09:20 | -37.68533 | 144.84312 | 339 ft | 8 kts | 229° |
| 2026-05-04 09:20 | -37.68551 | 144.84255 | 339 ft | 3 kts | 261° |
| 2026-05-04 09:20 | -37.68552 | 144.84250 | 339 ft | 0 kts | 262° |
| 2026-05-04 09:21 | -37.68553 | 144.84239 | 339 ft | 2 kts | 262° |
| 2026-05-04 09:22 | -37.68559 | 144.84180 | 339 ft | 9 kts | 264° |
| 2026-05-04 09:22 | -37.68547 | 144.84105 | 339 ft | 8 kts | 320° |
| 2026-05-04 09:22 | -37.68492 | 144.84087 | 340 ft | 8 kts | 352° |
| 2026-05-04 09:22 | -37.68248 | 144.84042 | 348 ft | 70 kts | 352° |
| 2026-05-04 09:23 | -37.67552 | 144.83911 | 369 ft | 130 kts | 352° |
| 2026-05-04 09:23 | -37.66491 | 144.83710 | 542 ft | 166 kts | 352° |
| 2026-05-04 09:23 | -37.65410 | 144.83508 | 1321 ft | 156 kts | 350° |
| 2026-05-04 09:23 | -37.64346 | 144.83313 | 2016 ft | 158 kts | 348° |
| 2026-05-04 09:25 | -37.54490 | 144.85031 | 5542 ft | 268 kts | 20° |
| 2026-05-04 09:25 | -37.52834 | 144.86081 | 6328 ft | 270 kts | 20° |
| 2026-05-04 09:26 | -37.51147 | 144.87115 | 7083 ft | 273 kts | 20° |
| 2026-05-04 09:26 | -37.49427 | 144.88153 | 7821 ft | 276 kts | 20° |
| 2026-05-04 09:26 | -37.47684 | 144.89204 | 8535 ft | 280 kts | 19° |
| 2026-05-04 09:26 | -37.45933 | 144.90263 | 9216 ft | 284 kts | 20° |
| 2026-05-04 09:27 | -37.44193 | 144.91496 | 9887 ft | 292 kts | 32° |
| 2026-05-04 09:27 | -37.42699 | 144.93266 | 10491 ft | 304 kts | 45° |
| 2026-05-04 09:27 | -37.41440 | 144.95489 | 10797 ft | 323 kts | 52° |
| 2026-05-04 09:27 | -37.40150 | 144.97870 | 11156 ft | 336 kts | 51° |
| 2026-05-04 09:28 | -37.38808 | 145.00266 | 11766 ft | 339 kts | 50° |
| 2026-05-04 09:28 | -37.37441 | 145.02687 | 12459 ft | 340 kts | 50° |
| 2026-05-04 09:28 | -37.36060 | 145.05127 | 13075 ft | 343 kts | 50° |
| 2026-05-04 09:28 | -37.34679 | 145.07565 | 13663 ft | 346 kts | 50° |
| 2026-05-04 09:29 | -37.33277 | 145.10039 | 14265 ft | 349 kts | 50° |
| 2026-05-04 09:29 | -37.31874 | 145.12512 | 14833 ft | 353 kts | 50° |
| 2026-05-04 09:29 | -37.30454 | 145.15015 | 15398 ft | 355 kts | 50° |
| 2026-05-04 09:29 | -37.29005 | 145.17569 | 15953 ft | 359 kts | 50° |
| 2026-05-04 09:30 | -37.27573 | 145.20091 | 16473 ft | 362 kts | 50° |
| 2026-05-04 09:30 | -37.26104 | 145.22676 | 16989 ft | 365 kts | 50° |
| 2026-05-04 09:30 | -37.24626 | 145.25275 | 17517 ft | 368 kts | 50° |
| 2026-05-04 09:30 | -37.23140 | 145.27884 | 18004 ft | 371 kts | 50° |
| 2026-05-04 09:31 | -37.21633 | 145.30530 | 18493 ft | 374 kts | 50° |
| 2026-05-04 09:31 | -37.20126 | 145.33173 | 18985 ft | 376 kts | 50° |
| 2026-05-04 09:31 | -37.18601 | 145.35847 | 19460 ft | 379 kts | 50° |
| 2026-05-04 09:31 | -37.17061 | 145.38544 | 19921 ft | 382 kts | 50° |
| 2026-05-04 09:32 | -37.15512 | 145.41252 | 20385 ft | 384 kts | 49° |
| 2026-05-04 09:32 | -37.13948 | 145.43988 | 20854 ft | 386 kts | 49° |
| 2026-05-04 09:34 | -37.02736 | 145.63506 | 23705 ft | 404 kts | 48° |
| 2026-05-04 09:34 | -37.01088 | 145.66362 | 24076 ft | 405 kts | 47° |
| 2026-05-04 09:34 | -36.99454 | 145.69196 | 24419 ft | 407 kts | 46° |
| 2026-05-04 09:34 | -36.97789 | 145.72086 | 24750 ft | 408 kts | 46° |
| 2026-05-04 09:35 | -36.96140 | 145.74944 | 25085 ft | 409 kts | 45° |
| 2026-05-04 09:35 | -36.94474 | 145.77820 | 25364 ft | 411 kts | 45° |
| 2026-05-04 09:35 | -36.92799 | 145.80708 | 25658 ft | 413 kts | 45° |
| 2026-05-04 09:35 | -36.91098 | 145.83641 | 25964 ft | 415 kts | 45° |
| 2026-05-04 09:37 | -36.79113 | 146.04245 | 28029 ft | 425 kts | 44° |
| 2026-05-04 09:37 | -36.77368 | 146.07234 | 28310 ft | 427 kts | 44° |
| 2026-05-04 09:38 | -36.75618 | 146.10229 | 28552 ft | 429 kts | 44° |
| 2026-05-04 09:38 | -36.73858 | 146.13238 | 28813 ft | 431 kts | 44° |
| 2026-05-04 09:38 | -36.72109 | 146.16225 | 29061 ft | 433 kts | 44° |
| 2026-05-04 09:38 | -36.70321 | 146.19282 | 29359 ft | 435 kts | 44° |
| 2026-05-04 09:39 | -36.68543 | 146.22313 | 29596 ft | 437 kts | 44° |
| 2026-05-04 09:39 | -36.66745 | 146.25380 | 29873 ft | 438 kts | 44° |
| 2026-05-04 09:39 | -36.64966 | 146.28409 | 30115 ft | 440 kts | 44° |
| 2026-05-04 09:39 | -36.63145 | 146.31503 | 30342 ft | 442 kts | 44° |
| 2026-05-04 09:40 | -36.61319 | 146.34602 | 30571 ft | 444 kts | 44° |
| 2026-05-04 09:40 | -36.59490 | 146.37711 | 30794 ft | 447 kts | 44° |
| 2026-05-04 09:40 | -36.57666 | 146.40805 | 30975 ft | 450 kts | 44° |
| 2026-05-04 09:40 | -36.55814 | 146.43944 | 31222 ft | 451 kts | 44° |
| 2026-05-04 09:41 | -36.53960 | 146.47087 | 31490 ft | 452 kts | 44° |
| 2026-05-04 09:42 | -36.40903 | 146.69133 | 33434 ft | 451 kts | 44° |
| 2026-05-04 09:43 | -36.39054 | 146.72243 | 33677 ft | 450 kts | 44° |
| 2026-05-04 09:43 | -36.37185 | 146.75383 | 33895 ft | 450 kts | 44° |
| 2026-05-04 09:43 | -36.35341 | 146.78471 | 34059 ft | 451 kts | 44° |
| 2026-05-04 09:43 | -36.33476 | 146.81598 | 34229 ft | 452 kts | 44° |
| 2026-05-04 09:44 | -36.31611 | 146.84720 | 34409 ft | 452 kts | 44° |
| 2026-05-04 09:44 | -36.29752 | 146.87830 | 34572 ft | 453 kts | 44° |
| 2026-05-04 09:44 | -36.27882 | 146.90955 | 34726 ft | 454 kts | 44° |
| 2026-05-04 09:46 | -36.14718 | 147.12888 | 35019 ft | 455 kts | 44° |
| 2026-05-04 09:46 | -36.10938 | 147.19157 | 35038 ft | 456 kts | 44° |
| 2026-05-04 09:47 | -36.07149 | 147.25436 | 35037 ft | 456 kts | 44° |
| 2026-05-04 09:49 | -35.92012 | 147.50392 | 35043 ft | 455 kts | 44° |
| 2026-05-04 09:51 | -35.78687 | 147.72205 | 35045 ft | 454 kts | 43° |
| 2026-05-04 09:51 | -35.74882 | 147.78406 | 35046 ft | 454 kts | 43° |
| 2026-05-04 09:52 | -35.71089 | 147.84584 | 35047 ft | 453 kts | 43° |
| 2026-05-04 09:52 | -35.67272 | 147.90781 | 35053 ft | 454 kts | 43° |
| 2026-05-04 09:53 | -35.63456 | 147.96956 | 35051 ft | 455 kts | 43° |
| 2026-05-04 09:53 | -35.59644 | 148.03126 | 35047 ft | 455 kts | 43° |
| 2026-05-04 09:54 | -35.55817 | 148.09308 | 35061 ft | 456 kts | 43° |
| 2026-05-04 09:54 | -35.51966 | 148.15524 | 35062 ft | 455 kts | 43° |
| 2026-05-04 09:55 | -35.48134 | 148.21695 | 35060 ft | 455 kts | 43° |
| 2026-05-04 09:55 | -35.44311 | 148.27837 | 35058 ft | 455 kts | 43° |
| 2026-05-04 09:56 | -35.40469 | 148.34004 | 35060 ft | 455 kts | 43° |
| 2026-05-04 09:56 | -35.36615 | 148.40175 | 35061 ft | 455 kts | 43° |
| 2026-05-04 09:57 | -35.32778 | 148.46312 | 35066 ft | 455 kts | 43° |
| 2026-05-04 09:57 | -35.28934 | 148.52446 | 35072 ft | 455 kts | 43° |
| 2026-05-04 09:58 | -35.25098 | 148.58557 | 35063 ft | 455 kts | 42° |
| 2026-05-04 09:58 | -35.21234 | 148.64694 | 35061 ft | 455 kts | 43° |
| 2026-05-04 10:00 | -35.05825 | 148.89104 | 35046 ft | 455 kts | 42° |
| 2026-05-04 10:02 | -34.92567 | 149.09967 | 32906 ft | 444 kts | 41° |
| 2026-05-04 10:04 | -34.79491 | 149.30418 | 29210 ft | 429 kts | 43° |
| 2026-05-04 10:04 | -34.77680 | 149.33247 | 28723 ft | 425 kts | 43° |
| 2026-05-04 10:04 | -34.75884 | 149.36089 | 28244 ft | 423 kts | 44° |
| 2026-05-04 10:04 | -34.74213 | 149.39017 | 27773 ft | 423 kts | 47° |
| 2026-05-04 10:05 | -34.72678 | 149.42061 | 27293 ft | 424 kts | 51° |
| 2026-05-04 10:05 | -34.71277 | 149.45187 | 26810 ft | 422 kts | 53° |
| 2026-05-04 10:05 | -34.69915 | 149.48320 | 26318 ft | 419 kts | 53° |
| 2026-05-04 10:05 | -34.68553 | 149.51457 | 25827 ft | 416 kts | 53° |
| 2026-05-04 10:06 | -34.67221 | 149.54523 | 25341 ft | 413 kts | 53° |
| 2026-05-04 10:06 | -34.65892 | 149.57576 | 25073 ft | 409 kts | 53° |
| 2026-05-04 10:06 | -34.64547 | 149.60652 | 25061 ft | 411 kts | 53° |
| 2026-05-04 10:08 | -34.56498 | 149.78992 | 25059 ft | 411 kts | 53° |
| 2026-05-04 10:08 | -34.55153 | 149.82047 | 25059 ft | 411 kts | 53° |
| 2026-05-04 10:08 | -34.53807 | 149.85101 | 25062 ft | 411 kts | 53° |
| 2026-05-04 10:08 | -34.52470 | 149.88132 | 25063 ft | 411 kts | 53° |
| 2026-05-04 10:09 | -34.51124 | 149.91183 | 25066 ft | 411 kts | 53° |
| 2026-05-04 10:09 | -34.49793 | 149.94212 | 25056 ft | 397 kts | 53° |
| 2026-05-04 10:09 | -34.48521 | 149.97110 | 24930 ft | 384 kts | 52° |
| 2026-05-04 10:09 | -34.47281 | 149.99922 | 24677 ft | 376 kts | 52° |
| 2026-05-04 10:10 | -34.46056 | 150.02687 | 24323 ft | 371 kts | 52° |
| 2026-05-04 10:10 | -34.44849 | 150.05402 | 23903 ft | 368 kts | 52° |
| 2026-05-04 10:10 | -34.43644 | 150.08112 | 23491 ft | 365 kts | 52° |
| 2026-05-04 10:10 | -34.42442 | 150.10812 | 23064 ft | 363 kts | 52° |
| 2026-05-04 10:11 | -34.41252 | 150.13481 | 22453 ft | 367 kts | 52° |
| 2026-05-04 10:11 | -34.40026 | 150.16216 | 21611 ft | 377 kts | 53° |
| 2026-05-04 10:11 | -34.38760 | 150.19043 | 20879 ft | 382 kts | 53° |
| 2026-05-04 10:11 | -34.37516 | 150.21845 | 20409 ft | 379 kts | 53° |
| 2026-05-04 10:12 | -34.36274 | 150.24643 | 19968 ft | 376 kts | 53° |
| 2026-05-04 10:12 | -34.35041 | 150.27416 | 19533 ft | 372 kts | 54° |
| 2026-05-04 10:12 | -34.33821 | 150.30150 | 19061 ft | 370 kts | 54° |
| 2026-05-04 10:12 | -34.32609 | 150.32869 | 18639 ft | 366 kts | 54° |
| 2026-05-04 10:13 | -34.31409 | 150.35553 | 18194 ft | 363 kts | 54° |
| 2026-05-04 10:13 | -34.30217 | 150.38216 | 17728 ft | 361 kts | 53° |
| 2026-05-04 10:13 | -34.29029 | 150.40868 | 17288 ft | 358 kts | 54° |
| 2026-05-04 10:13 | -34.27848 | 150.43501 | 16858 ft | 356 kts | 54° |
| 2026-05-04 10:14 | -34.26673 | 150.46129 | 16405 ft | 354 kts | 54° |
| 2026-05-04 10:14 | -34.25521 | 150.48704 | 15942 ft | 352 kts | 54° |
| 2026-05-04 10:16 | -34.17476 | 150.66658 | 12480 ft | 340 kts | 55° |
| 2026-05-04 10:16 | -34.16365 | 150.69142 | 12050 ft | 332 kts | 54° |
| 2026-05-04 10:16 | -34.15286 | 150.71542 | 11495 ft | 328 kts | 55° |
| 2026-05-04 10:16 | -34.14202 | 150.73944 | 10882 ft | 327 kts | 54° |
| 2026-05-04 10:17 | -34.13126 | 150.76329 | 10346 ft | 320 kts | 55° |
| 2026-05-04 10:17 | -34.12085 | 150.78647 | 10069 ft | 304 kts | 55° |
| 2026-05-04 10:19 | -34.05400 | 150.93474 | 7001 ft | 280 kts | 56° |
| 2026-05-04 10:19 | -34.04464 | 150.95549 | 6995 ft | 282 kts | 56° |
| 2026-05-04 10:19 | -34.03532 | 150.97635 | 7005 ft | 283 kts | 59° |
| 2026-05-04 10:19 | -34.03056 | 150.99947 | 6983 ft | 294 kts | 89° |
| 2026-05-04 10:20 | -34.03654 | 151.02324 | 6982 ft | 303 kts | 121° |
| 2026-05-04 10:20 | -34.05050 | 151.04230 | 6995 ft | 304 kts | 135° |
| 2026-05-04 10:20 | -34.06573 | 151.06015 | 6998 ft | 304 kts | 135° |
| 2026-05-04 10:20 | -34.08233 | 151.07538 | 6988 ft | 304 kts | 153° |
| 2026-05-04 10:21 | -34.10213 | 151.08414 | 7021 ft | 302 kts | 168° |
| 2026-05-04 10:21 | -34.12250 | 151.08926 | 6872 ft | 296 kts | 172° |
| 2026-05-04 10:21 | -34.14274 | 151.09383 | 6462 ft | 297 kts | 172° |
| 2026-05-04 10:21 | -34.16311 | 151.09860 | 6061 ft | 297 kts | 171° |
| 2026-05-04 10:22 | -34.20331 | 151.10873 | 5349 ft | 292 kts | 170° |
| 2026-05-04 10:22 | -34.22259 | 151.11629 | 4962 ft | 292 kts | 150° |
| 2026-05-04 10:22 | -34.23717 | 151.13232 | 4733 ft | 279 kts | 121° |
| 2026-05-04 10:23 | -34.24381 | 151.15352 | 4541 ft | 262 kts | 92° |
| 2026-05-04 10:23 | -34.24454 | 151.17496 | 4373 ft | 250 kts | 85° |
| 2026-05-04 10:25 | -34.16722 | 151.23347 | 3035 ft | 186 kts | 348° |
| 2026-05-04 10:25 | -34.15451 | 151.23027 | 3017 ft | 187 kts | 346° |
| 2026-05-04 10:25 | -34.14226 | 151.22704 | 2981 ft | 171 kts | 346° |
| 2026-05-04 10:25 | -34.13070 | 151.22395 | 2981 ft | 168 kts | 346° |
| 2026-05-04 10:26 | -34.11923 | 151.22092 | 2989 ft | 169 kts | 346° |
| 2026-05-04 10:26 | -34.10797 | 151.21796 | 2974 ft | 160 kts | 346° |
| 2026-05-04 10:26 | -34.09755 | 151.21526 | 2835 ft | 148 kts | 346° |
| 2026-05-04 10:26 | -34.08752 | 151.21265 | 2552 ft | 146 kts | 346° |
| 2026-05-04 10:27 | -34.07763 | 151.21008 | 2236 ft | 143 kts | 347° |
| 2026-05-04 10:27 | -34.06798 | 151.20761 | 2040 ft | 143 kts | 347° |
| 2026-05-04 10:27 | -34.05811 | 151.20506 | 1850 ft | 144 kts | 347° |
| 2026-05-04 10:27 | -34.04834 | 151.20252 | 1661 ft | 144 kts | 348° |
| 2026-05-04 10:28 | -34.03869 | 151.20000 | 1497 ft | 139 kts | 348° |
| 2026-05-04 10:28 | -34.02938 | 151.19756 | 1310 ft | 135 kts | 348° |
| 2026-05-04 10:28 | -34.02028 | 151.19519 | 1122 ft | 134 kts | 348° |
| 2026-05-04 10:28 | -34.01116 | 151.19282 | 943 ft | 133 kts | 349° |
| 2026-05-04 10:29 | -34.00205 | 151.19051 | 771 ft | 133 kts | 349° |
| 2026-05-04 10:29 | -33.99304 | 151.18811 | 598 ft | 132 kts | 349° |
| 2026-05-04 10:29 | -33.98399 | 151.18578 | 421 ft | 132 kts | 349° |
| 2026-05-04 10:29 | -33.97508 | 151.18339 | 245 ft | 131 kts | 349° |
| 2026-05-04 10:30 | -33.96615 | 151.18114 | 75 ft | 129 kts | 349° |
| 2026-05-04 10:30 | -33.95774 | 151.17896 | 15 ft | 106 kts | 348° |
| 2026-05-04 10:30 | -33.95220 | 151.17752 | 18 ft | 57 kts | 348° |
| 2026-05-04 10:30 | -33.94862 | 151.17662 | 21 ft | 43 kts | 351° |
| 2026-05-04 10:31 | -33.94687 | 151.17644 | 24 ft | 19 kts | 2° |
| 2026-05-04 10:31 | -33.94595 | 151.17658 | 25 ft | 7 kts | 13° |
| 2026-05-04 10:32 | -33.94403 | 151.17728 | 21 ft | 7 kts | 18° |
| 2026-05-04 10:33 | -33.94344 | 151.17740 | 20 ft | 9 kts | 351° |
| 2026-05-04 10:33 | -33.94269 | 151.17717 | 18 ft | 12 kts | 346° |
| 2026-05-04 10:33 | -33.94179 | 151.17690 | 16 ft | 14 kts | 345° |
| 2026-05-04 10:33 | -33.94073 | 151.17656 | 12 ft | 17 kts | 346° |
| 2026-05-04 10:34 | -33.93950 | 151.17624 | 9 ft | 18 kts | 348° |
| 2026-05-04 10:34 | -33.93825 | 151.17592 | 9 ft | 17 kts | 347° |
| 2026-05-04 10:34 | -33.93707 | 151.17561 | 9 ft | 17 kts | 348° |
| 2026-05-04 10:34 | -33.93589 | 151.17531 | 9 ft | 16 kts | 348° |
| 2026-05-04 10:35 | -33.93478 | 151.17503 | 10 ft | 13 kts | 358° |
| 2026-05-04 10:35 | -33.93401 | 151.17508 | 13 ft | 9 kts | 355° |
| 2026-05-04 10:35 | -33.93337 | 151.17493 | 15 ft | 10 kts | 348° |
| 2026-05-04 10:35 | -33.93255 | 151.17471 | 17 ft | 11 kts | 348° |
| 2026-05-04 10:36 | -33.93178 | 151.17452 | 19 ft | 10 kts | 348° |
| 2026-05-04 10:36 | -33.93107 | 151.17433 | 20 ft | 10 kts | 348° |
| 2026-05-04 10:36 | -33.93038 | 151.17416 | 21 ft | 9 kts | 348° |
| 2026-05-04 10:36 | -33.92994 | 151.17421 | 22 ft | 6 kts | 52° |
| 2026-05-04 10:37 | -33.92988 | 151.17477 | 21 ft | 7 kts | 97° |
| 2026-05-04 10:37 | -33.92997 | 151.17540 | 21 ft | 7 kts | 100° |
| 2026-05-04 10:37 | -33.93006 | 151.17606 | 21 ft | 8 kts | 100° |
| 2026-05-04 10:37 | -33.93017 | 151.17660 | 21 ft | 4 kts | 106° |
| 2026-05-04 10:39 | -33.93097 | 151.17673 | 20 ft | 0 kts | 187° |